createdAt,value
2023-04-23T00:00:13.534Z,13.27
2023-04-23T00:02:44.695Z,13.03
2023-04-23T00:05:14.912Z,13.77
2023-04-23T00:07:43.716Z,14.47
2023-04-23T00:10:13.082Z,14.37
2023-04-23T00:12:42.130Z,14.20
2023-04-23T00:15:13.397Z,14.43
2023-04-23T00:17:41.666Z,14.77
2023-04-23T00:20:10.595Z,14.00
2023-04-23T00:22:38.740Z,14.50
2023-04-23T00:25:07.236Z,14.00
2023-04-23T00:27:35.188Z,14.70
2023-04-23T00:30:03.938Z,16.60
2023-04-23T00:32:33.799Z,16.73
2023-04-23T00:35:02.375Z,16.87
2023-04-23T00:37:30.450Z,16.40
2023-04-23T00:39:58.712Z,16.50
2023-04-23T00:42:28.156Z,18.40
2023-04-23T00:44:57.136Z,18.00
2023-04-23T00:47:26.415Z,17.27
2023-04-23T00:49:57.161Z,17.57
2023-04-23T00:52:25.285Z,15.93
2023-04-23T00:54:53.334Z,16.93
2023-04-23T00:57:22.059Z,16.90
2023-04-23T00:59:50.442Z,16.90
2023-04-23T01:02:19.143Z,15.97
2023-04-23T01:04:51.232Z,16.03
2023-04-23T01:07:20.727Z,15.37
2023-04-23T01:09:50.574Z,15.87
2023-04-23T01:12:18.979Z,15.50
2023-04-23T01:14:47.287Z,16.23
2023-04-23T01:17:15.380Z,16.77
2023-04-23T01:19:43.603Z,16.93
2023-04-23T01:22:14.393Z,15.87
2023-04-23T01:24:43.612Z,16.63
2023-04-23T01:27:12.311Z,16.97
2023-04-23T01:29:40.708Z,16.97
2023-04-23T01:32:09.887Z,17.50
2023-04-23T01:34:40.439Z,17.73
2023-04-23T01:37:08.851Z,17.30
2023-04-23T01:39:38.310Z,17.03
2023-04-23T01:42:08.437Z,17.87
2023-04-23T01:44:36.597Z,16.83
2023-04-23T01:47:06.972Z,18.03
2023-04-23T01:49:35.387Z,16.37
2023-04-23T01:52:03.896Z,16.53
2023-04-23T01:54:31.988Z,16.70
2023-04-23T01:57:01.518Z,17.20
2023-04-23T01:59:29.617Z,16.60
2023-04-23T02:01:57.735Z,16.70
2023-04-23T02:04:26.198Z,16.90
2023-04-23T02:06:54.416Z,15.63
2023-04-23T02:09:22.587Z,16.43
2023-04-23T02:11:51.150Z,16.40
2023-04-23T02:14:20.921Z,15.80
2023-04-23T02:16:49.794Z,15.87
2023-04-23T02:19:18.564Z,16.40
2023-04-23T02:21:46.890Z,16.27
2023-04-23T02:24:14.949Z,16.37
2023-04-23T02:26:43.050Z,16.20
2023-04-23T02:29:11.487Z,16.37
2023-04-23T02:31:41.010Z,15.93
2023-04-23T02:34:09.086Z,14.87
2023-04-23T02:36:38.269Z,17.20
2023-04-23T02:39:06.505Z,15.80
2023-04-23T02:41:34.716Z,15.90
2023-04-23T02:44:02.745Z,15.47
2023-04-23T02:46:31.815Z,15.60
2023-04-23T02:49:01.350Z,14.83
2023-04-23T02:51:29.749Z,14.33
2023-04-23T02:53:58.281Z,15.37
2023-04-23T02:56:26.540Z,15.10
2023-04-23T02:58:54.861Z,15.43
2023-04-23T03:01:23.120Z,15.83
2023-04-23T03:03:51.702Z,15.07
2023-04-23T03:06:21.886Z,15.70
2023-04-23T03:08:49.852Z,15.53
2023-04-23T03:11:17.871Z,15.83
2023-04-23T03:13:46.251Z,16.20
2023-04-23T03:16:14.575Z,14.87
2023-04-23T03:18:42.729Z,15.93
2023-04-23T03:21:10.928Z,16.10
2023-04-23T03:23:40.922Z,16.27
2023-04-23T03:26:09.196Z,15.97
2023-04-23T03:28:37.366Z,16.00
2023-04-23T03:31:05.912Z,16.20
2023-04-23T03:33:34.142Z,15.60
2023-04-23T03:36:02.598Z,16.77
2023-04-23T03:38:33.579Z,16.10
2023-04-23T03:41:04.908Z,15.83
2023-04-23T03:43:33.544Z,15.63
2023-04-23T03:46:01.643Z,16.20
2023-04-23T03:48:32.179Z,15.53
2023-04-23T03:51:03.447Z,16.47
2023-04-23T03:53:39.666Z,15.83
2023-04-23T03:56:47.279Z,16.43
2023-04-23T03:59:28.289Z,17.13
2023-04-23T04:01:59.767Z,15.53
2023-04-23T04:04:28.653Z,16.47
2023-04-23T04:06:57.767Z,16.50
2023-04-23T04:09:29.413Z,17.40
2023-04-23T04:12:04.101Z,17.77
2023-04-23T04:14:32.910Z,16.27
2023-04-23T04:17:01.114Z,17.57
2023-04-23T04:19:29.262Z,18.23
2023-04-23T04:21:57.259Z,18.60
2023-04-23T04:24:26.325Z,18.80
2023-04-23T04:26:54.569Z,18.73
2023-04-23T04:29:24.999Z,17.43
2023-04-23T04:31:53.169Z,18.13
2023-04-23T04:34:21.294Z,18.10
2023-04-23T04:36:49.543Z,18.10
2023-04-23T04:39:19.119Z,17.70
2023-04-23T04:41:49.014Z,18.90
2023-04-23T04:44:17.351Z,18.20
2023-04-23T04:46:48.052Z,17.10
2023-04-23T04:49:18.303Z,16.90
2023-04-23T04:51:46.341Z,17.07
2023-04-23T04:54:14.523Z,17.10
2023-04-23T04:56:42.595Z,16.73
2023-04-23T04:59:10.960Z,16.33
2023-04-23T05:01:39.070Z,15.73
2023-04-23T05:04:08.904Z,16.37
2023-04-23T05:06:37.060Z,16.13
2023-04-23T05:09:05.103Z,13.87
2023-04-23T05:11:33.400Z,14.73
2023-04-23T05:14:01.434Z,13.93
2023-04-23T05:16:29.449Z,14.10
2023-04-23T05:18:57.778Z,13.30
2023-04-23T05:21:28.226Z,13.20
2023-04-23T05:23:56.584Z,12.77
2023-04-23T05:26:24.616Z,14.10
2023-04-23T05:28:52.700Z,13.87
2023-04-23T05:31:20.983Z,13.27
2023-04-23T05:33:50.747Z,13.70
2023-04-23T05:36:19.313Z,13.13
2023-04-23T05:38:49.284Z,12.67
2023-04-23T05:41:17.456Z,11.37
2023-04-23T05:43:45.670Z,11.20
2023-04-23T05:46:13.773Z,10.23
2023-04-23T05:48:41.959Z,10.10
2023-04-23T05:51:11.020Z,9.80
2023-04-23T05:53:39.067Z,9.70
2023-04-23T05:56:08.570Z,10.27
2023-04-23T05:58:36.588Z,8.60
2023-04-23T06:01:05.039Z,8.67
2023-04-23T06:03:33.287Z,8.27
2023-04-23T06:06:01.626Z,7.63
2023-04-23T06:08:29.735Z,8.07
2023-04-23T06:10:58.313Z,8.30
2023-04-23T06:13:28.368Z,8.87
2023-04-23T06:15:56.395Z,8.17
2023-04-23T06:18:24.751Z,7.83
2023-04-23T06:20:53.146Z,7.20
2023-04-23T06:23:21.842Z,7.83
2023-04-23T06:25:49.981Z,7.10
2023-04-23T06:28:18.032Z,7.43
2023-04-23T06:31:16.996Z,6.60
2023-04-23T06:33:45.134Z,6.90
2023-04-23T06:36:14.809Z,7.10
2023-04-23T06:38:44.593Z,7.47
2023-04-23T06:41:13.140Z,6.87
2023-04-23T06:43:41.228Z,7.00
2023-04-23T06:46:22.955Z,6.40
2023-04-23T06:48:51.026Z,6.70
2023-04-23T06:51:19.138Z,6.87
2023-04-23T06:53:48.273Z,6.70
2023-04-23T06:56:16.377Z,7.43
2023-04-23T06:58:44.512Z,7.17
2023-04-23T07:01:19.322Z,7.17
2023-04-23T07:03:51.597Z,7.00
2023-04-23T07:06:19.751Z,5.80
2023-04-23T07:08:48.673Z,5.63
2023-04-23T07:11:16.851Z,7.30
2023-04-23T07:13:45.142Z,5.23
2023-04-23T07:16:13.314Z,5.40
2023-04-23T07:18:41.381Z,5.53
2023-04-23T07:21:11.203Z,5.33
2023-04-23T07:23:42.074Z,5.07
2023-04-23T07:26:10.383Z,5.27
2023-04-23T07:28:38.789Z,5.47
2023-04-23T07:31:07.961Z,5.40
2023-04-23T07:33:36.587Z,4.77
2023-04-23T07:36:04.953Z,4.77
2023-04-23T07:38:34.483Z,4.30
2023-04-23T07:41:02.994Z,4.00
2023-04-23T07:43:31.087Z,4.47
2023-04-23T07:45:59.488Z,4.43
2023-04-23T07:48:27.510Z,3.80
2023-04-23T07:50:55.641Z,4.30
2023-04-23T07:53:23.778Z,4.10
2023-04-23T07:55:53.301Z,4.07
2023-04-23T07:58:21.413Z,4.20
2023-04-23T08:00:49.408Z,4.40
2023-04-23T08:03:17.914Z,4.73
2023-04-23T08:05:46.528Z,4.03
2023-04-23T08:08:15.270Z,4.50
2023-04-23T08:10:44.016Z,4.60
2023-04-23T08:13:13.672Z,4.20
2023-04-23T08:15:41.738Z,4.63
2023-04-23T08:18:10.098Z,4.63
2023-04-23T08:20:38.296Z,4.17
2023-04-23T08:23:07.251Z,3.60
2023-04-23T08:25:35.540Z,3.70
2023-04-23T08:28:03.919Z,3.80
2023-04-23T08:30:33.792Z,4.40
2023-04-23T08:33:02.206Z,3.83
2023-04-23T08:35:34.451Z,3.87
2023-04-23T08:38:03.660Z,3.33
2023-04-23T08:40:34.101Z,3.70
2023-04-23T08:43:04.491Z,3.33
2023-04-23T08:45:41.607Z,3.35
2023-04-23T08:48:11.471Z,3.30
2023-04-23T08:50:42.057Z,3.20
2023-04-23T08:53:10.997Z,3.65
2023-04-23T08:55:39.549Z,3.17
2023-04-23T08:58:08.011Z,3.40
2023-04-23T09:00:37.941Z,2.90
2023-04-23T09:03:07.261Z,3.03
2023-04-23T09:05:35.898Z,3.38
2023-04-23T09:08:04.181Z,3.63
2023-04-23T09:10:32.544Z,3.65
2023-04-23T09:13:00.735Z,3.10
2023-04-23T09:15:28.799Z,2.95
2023-04-23T09:17:59.240Z,2.90
2023-04-23T09:20:27.492Z,3.58
2023-04-23T09:22:55.556Z,3.42
2023-04-23T09:25:25.407Z,3.60
2023-04-23T09:27:55.596Z,2.83
2023-04-23T09:30:25.453Z,3.22
2023-04-23T09:32:55.356Z,2.75
2023-04-23T09:35:28.844Z,3.28
2023-04-23T09:37:56.957Z,3.03
2023-04-23T09:40:28.196Z,3.10
2023-04-23T09:42:56.569Z,3.03
2023-04-23T09:45:26.223Z,2.97
2023-04-23T09:47:55.481Z,2.90
2023-04-23T09:50:34.537Z,3.08
2023-04-23T09:53:02.650Z,2.95
2023-04-23T09:55:35.555Z,3.00
2023-04-23T09:58:05.018Z,2.88
2023-04-23T10:00:39.413Z,3.10
2023-04-23T10:03:10.001Z,2.83
2023-04-23T10:06:00.353Z,2.65
2023-04-23T10:08:29.954Z,3.00
2023-04-23T10:11:10.063Z,2.80
2023-04-23T10:13:43.265Z,3.00
2023-04-23T10:16:21.260Z,3.20
2023-04-23T10:18:53.022Z,2.95
2023-04-23T10:21:26.783Z,2.83
2023-04-23T10:23:56.210Z,2.88
2023-04-23T10:26:26.142Z,2.75
2023-04-23T10:28:56.350Z,2.85
2023-04-23T10:31:25.585Z,2.60
2023-04-23T10:33:59.118Z,2.72
2023-04-23T10:36:30.194Z,2.92
2023-04-23T10:39:01.290Z,2.70
2023-04-23T10:41:36.404Z,3.03
2023-04-23T10:44:05.968Z,2.50
2023-04-23T10:46:39.390Z,3.50
2023-04-23T10:49:16.514Z,3.25
2023-04-23T10:54:20.990Z,2.80
2023-04-23T10:57:01.617Z,2.83
2023-04-23T10:59:31.231Z,2.95
2023-04-23T11:02:00.765Z,2.83
2023-04-23T11:04:30.751Z,2.67
2023-04-23T11:07:06.901Z,2.97
2023-04-23T11:09:40.297Z,2.80
2023-04-23T11:12:11.632Z,2.95
2023-04-23T11:15:42.986Z,2.72
2023-04-23T11:18:15.140Z,3.05
2023-04-23T11:20:43.532Z,2.92
2023-04-23T11:23:32.602Z,2.88
2023-04-23T11:26:01.994Z,2.78
2023-04-23T11:28:32.619Z,3.15
2023-04-23T11:31:01.148Z,3.22
2023-04-23T11:33:29.970Z,2.88
2023-04-23T11:35:58.356Z,2.92
2023-04-23T11:38:33.801Z,3.90
2023-04-23T11:41:05.389Z,3.10
2023-04-23T11:43:33.727Z,2.80
2023-04-23T11:46:02.541Z,2.78
2023-04-23T11:48:30.820Z,2.80
2023-04-23T11:50:59.129Z,2.65
2023-04-23T11:53:29.146Z,2.70
2023-04-23T11:55:57.514Z,2.85
2023-04-23T11:58:25.822Z,2.92
2023-04-23T12:01:03.717Z,2.65
2023-04-23T12:03:32.153Z,2.70
2023-04-23T12:06:00.830Z,2.75
2023-04-23T12:08:34.984Z,2.80
2023-04-23T12:11:06.284Z,2.42
2023-04-23T12:13:34.883Z,2.60
2023-04-23T12:16:04.592Z,3.13
2023-04-23T12:18:35.677Z,3.10
2023-04-23T12:21:07.137Z,2.92
2023-04-23T12:23:40.926Z,2.90
2023-04-23T12:26:21.284Z,2.80
2023-04-23T12:28:51.213Z,2.83
2023-04-23T12:31:24.057Z,2.80
2023-04-23T12:34:00.344Z,3.17
2023-04-23T12:36:30.818Z,2.95
2023-04-23T12:39:22.705Z,3.00
2023-04-23T12:41:52.317Z,3.00
2023-04-23T12:44:23.227Z,2.88
2023-04-23T12:46:57.447Z,2.50
2023-04-23T12:49:27.222Z,2.88
2023-04-23T12:51:57.835Z,2.88
2023-04-23T12:54:29.671Z,2.75
2023-04-23T12:56:57.834Z,3.10
2023-04-23T12:59:25.987Z,2.83
2023-04-23T13:01:54.166Z,3.05
2023-04-23T13:04:26.531Z,2.83
2023-04-23T13:06:54.752Z,2.80
2023-04-23T13:09:26.310Z,2.80
2023-04-23T13:11:56.950Z,3.25
2023-04-23T13:14:25.095Z,3.50
2023-04-23T13:16:53.815Z,6.07
2023-04-23T13:19:22.010Z,8.48
2023-04-23T13:21:50.105Z,4.18
2023-04-23T13:24:18.286Z,4.05
2023-04-23T13:26:46.653Z,9.57
2023-04-23T13:29:16.300Z,50.33
2023-04-23T13:31:44.543Z,6.80
2023-04-23T13:34:12.788Z,22.55
2023-04-23T13:36:42.320Z,7.43
2023-04-23T13:39:14.124Z,7.68
2023-04-23T13:41:42.203Z,8.00
2023-04-23T13:44:10.802Z,7.55
2023-04-23T13:46:41.025Z,4.78
2023-04-23T13:49:09.299Z,4.68
2023-04-23T13:51:37.603Z,5.15
2023-04-23T13:54:05.971Z,5.80
2023-04-23T13:56:34.522Z,3.40
2023-04-23T14:01:35.330Z,3.80
2023-04-23T14:04:05.175Z,9.55
2023-04-23T14:06:33.351Z,5.32
2023-04-23T14:09:01.796Z,6.20
2023-04-23T14:11:30.060Z,4.32
2023-04-23T14:13:58.426Z,3.13
2023-04-23T14:16:26.504Z,4.40
2023-04-23T14:18:55.293Z,2.97
2023-04-23T14:21:25.460Z,2.72
2023-04-23T14:23:57.760Z,2.88
2023-04-23T14:26:47.145Z,2.75
2023-04-23T14:29:25.279Z,5.97
2023-04-23T14:31:54.006Z,4.15
2023-04-23T14:34:22.708Z,2.75
2023-04-23T14:36:53.346Z,3.33
2023-04-23T14:39:22.985Z,3.05
2023-04-23T14:41:51.537Z,4.97
2023-04-23T14:44:19.724Z,5.00
2023-04-23T14:46:49.976Z,3.55
2023-04-23T14:49:18.060Z,2.90
2023-04-23T14:51:46.247Z,3.42
2023-04-23T14:54:16.112Z,3.20
2023-04-23T14:56:44.351Z,3.00
2023-04-23T14:59:12.769Z,2.95
2023-04-23T15:01:41.118Z,3.20
2023-04-23T15:04:10.869Z,3.45
2023-04-23T15:06:40.456Z,3.45
2023-04-23T15:09:09.182Z,2.80
2023-04-23T15:11:39.068Z,3.40
2023-04-23T15:14:39.344Z,3.55
2023-04-23T15:17:07.563Z,3.05
2023-04-23T15:19:36.074Z,3.65
2023-04-23T15:22:04.115Z,3.38
2023-04-23T15:24:32.122Z,3.50
2023-04-23T15:27:02.131Z,3.35
2023-04-23T15:29:31.198Z,3.50
2023-04-23T15:31:59.664Z,3.17
2023-04-23T15:34:28.877Z,3.28
2023-04-23T15:36:57.234Z,3.38
2023-04-23T15:39:26.285Z,3.20
2023-04-23T15:41:54.548Z,3.28
2023-04-23T15:44:25.073Z,3.38
2023-04-23T15:46:53.337Z,3.03
2023-04-23T15:49:21.495Z,2.90
2023-04-23T15:51:49.562Z,3.22
2023-04-23T15:54:17.701Z,3.05
2023-04-23T15:56:45.884Z,3.13
2023-04-23T15:59:14.021Z,3.40
2023-04-23T16:01:43.716Z,3.38
2023-04-23T16:04:13.939Z,3.50
2023-04-23T16:06:42.268Z,3.25
2023-04-23T16:09:10.380Z,3.10
2023-04-23T16:11:38.968Z,3.80
2023-04-23T16:14:09.179Z,3.22
2023-04-23T16:16:38.445Z,3.40
2023-04-23T16:19:08.000Z,3.80
2023-04-23T16:21:36.261Z,3.60
2023-04-23T16:24:04.905Z,3.88
2023-04-23T16:26:33.162Z,3.70
2023-04-23T16:31:32.760Z,4.18
2023-04-23T16:34:01.185Z,3.90
2023-04-23T16:36:32.064Z,3.60
2023-04-23T16:39:00.199Z,3.80
2023-04-23T16:41:28.769Z,3.45
2023-04-23T16:43:56.858Z,4.00
2023-04-23T16:46:26.254Z,3.97
2023-04-23T16:48:54.334Z,4.10
2023-04-23T16:51:22.713Z,4.93
2023-04-23T16:53:52.795Z,4.90
2023-04-23T16:56:21.418Z,4.15
2023-04-23T16:58:49.710Z,4.00
2023-04-23T17:01:21.900Z,4.33
2023-04-23T17:03:50.091Z,3.90
2023-04-23T17:06:25.788Z,3.97
2023-04-23T17:08:55.793Z,3.60
2023-04-23T17:11:24.629Z,3.87
2023-04-23T17:13:53.009Z,3.77
2023-04-23T17:16:21.318Z,4.37
2023-04-23T17:18:49.667Z,3.70
2023-04-23T17:21:19.086Z,3.80
2023-04-23T17:23:47.351Z,3.70
2023-04-23T17:26:19.314Z,4.10
2023-04-23T17:28:47.840Z,4.40
2023-04-23T17:31:16.322Z,4.30
2023-04-23T17:33:49.219Z,4.67
2023-04-23T17:36:18.150Z,4.10
2023-04-23T17:38:46.373Z,4.37
2023-04-23T17:41:16.832Z,4.27
2023-04-23T17:43:45.397Z,3.87
2023-04-23T17:46:13.694Z,4.53
2023-04-23T17:48:42.183Z,4.47
2023-04-23T17:51:10.365Z,4.73
2023-04-23T17:53:38.618Z,4.50
2023-04-23T17:56:12.145Z,4.83
2023-04-23T17:58:41.993Z,5.17
2023-04-23T18:01:12.174Z,5.60
2023-04-23T18:03:40.419Z,5.30
2023-04-23T18:06:09.339Z,5.57
2023-04-23T18:08:38.456Z,5.00
2023-04-23T18:11:08.032Z,4.90
2023-04-23T18:13:37.221Z,4.47
2023-04-23T18:16:06.825Z,4.97
2023-04-23T18:18:35.306Z,5.43
2023-04-23T18:21:04.815Z,4.70
2023-04-23T18:23:33.582Z,4.40
2023-04-23T18:26:02.540Z,3.80
2023-04-23T18:28:31.476Z,4.60
2023-04-23T18:31:08.330Z,4.30
2023-04-23T18:33:49.233Z,4.50
2023-04-23T18:36:26.011Z,3.80
2023-04-23T18:38:57.700Z,4.20
2023-04-23T18:41:28.881Z,4.17
2023-04-23T18:44:00.613Z,4.60
2023-04-23T18:46:31.064Z,3.80
2023-04-23T18:49:09.166Z,4.60
2023-04-23T18:51:39.965Z,4.03
2023-04-23T18:54:09.975Z,4.23
2023-04-23T18:56:38.137Z,4.07
2023-04-23T18:59:06.563Z,4.40
2023-04-23T19:01:39.510Z,4.20
2023-04-23T19:04:09.220Z,4.07
2023-04-23T19:06:38.108Z,4.20
2023-04-23T19:09:06.551Z,4.30
2023-04-23T19:11:35.519Z,4.67
2023-04-23T19:14:04.156Z,4.80
2023-04-23T19:16:32.590Z,5.03
2023-04-23T19:19:01.372Z,4.37
2023-04-23T19:21:34.179Z,4.60
2023-04-23T19:24:02.701Z,4.37
2023-04-23T19:26:31.087Z,4.47
2023-04-23T19:29:01.473Z,4.20
2023-04-23T19:31:31.835Z,3.83
2023-04-23T19:34:00.049Z,4.50
2023-04-23T19:36:28.314Z,4.57
2023-04-23T19:38:57.789Z,4.10
2023-04-23T19:41:29.160Z,3.70
2023-04-23T19:43:59.922Z,3.97
2023-04-23T19:46:28.174Z,4.27
2023-04-23T19:48:57.985Z,3.90
2023-04-23T19:51:32.555Z,4.20
2023-04-23T19:54:05.223Z,4.30
2023-04-23T19:56:34.282Z,4.87
2023-04-23T19:59:03.015Z,4.50
2023-04-23T20:01:33.210Z,4.50
2023-04-23T20:04:01.944Z,5.33
2023-04-23T20:06:32.258Z,5.77
2023-04-23T20:09:07.492Z,6.13
2023-04-23T20:11:36.680Z,5.90
2023-04-23T20:14:07.950Z,5.70
2023-04-23T20:16:38.750Z,5.53
2023-04-23T20:19:11.254Z,5.67
2023-04-23T20:21:43.833Z,6.60
2023-04-23T20:24:14.934Z,5.53
2023-04-23T20:26:46.932Z,5.83
2023-04-23T20:29:15.210Z,5.30
2023-04-23T20:31:49.514Z,5.30
2023-04-23T20:34:18.282Z,5.10
2023-04-23T20:36:47.782Z,4.83
2023-04-23T20:39:24.081Z,4.97
2023-04-23T20:42:00.696Z,4.73
2023-04-23T20:44:30.045Z,4.60
2023-04-23T20:46:58.625Z,5.20
2023-04-23T20:49:26.954Z,5.07
2023-04-23T20:51:55.490Z,4.53
2023-04-23T20:54:26.974Z,4.30
2023-04-23T20:56:55.278Z,4.77
2023-04-23T20:59:24.923Z,5.00
2023-04-23T21:01:55.489Z,5.87
2023-04-23T21:04:23.830Z,5.30
2023-04-23T21:06:53.720Z,5.47
2023-04-23T21:09:21.851Z,4.90
2023-04-23T21:11:51.994Z,5.00
2023-04-23T21:14:31.230Z,5.23
2023-04-23T21:17:01.850Z,5.00
2023-04-23T21:19:30.317Z,5.73
2023-04-23T21:21:58.566Z,5.13
2023-04-23T21:24:27.020Z,5.20
2023-04-23T21:26:56.629Z,6.87
2023-04-23T21:29:26.005Z,7.00
2023-04-23T21:31:55.885Z,6.37
2023-04-23T21:34:24.326Z,5.97
2023-04-23T21:36:52.551Z,5.97
2023-04-23T21:39:21.090Z,5.97
2023-04-23T21:41:50.303Z,4.97
2023-04-23T21:44:21.497Z,5.63
2023-04-23T21:46:52.677Z,5.70
2023-04-23T21:49:20.911Z,6.27
2023-04-23T21:51:50.412Z,5.50
2023-04-23T21:54:21.885Z,6.40
2023-04-23T21:56:50.284Z,6.03
2023-04-23T21:59:20.137Z,6.13
2023-04-23T22:01:48.379Z,6.43
2023-04-23T22:04:18.429Z,6.87
2023-04-23T22:06:47.196Z,6.67
2023-04-23T22:09:15.919Z,6.77
2023-04-23T22:12:00.725Z,6.90
2023-04-23T22:14:32.341Z,6.33
2023-04-23T22:17:02.149Z,7.27
2023-04-23T22:19:31.418Z,6.73
2023-04-23T22:22:03.356Z,6.53
2023-04-23T22:24:42.289Z,6.90
2023-04-23T22:27:10.491Z,6.33
2023-04-23T22:29:40.611Z,6.10
2023-04-23T22:32:09.170Z,6.63
2023-04-23T22:34:37.965Z,7.10
2023-04-23T22:37:06.183Z,6.80
2023-04-23T22:39:34.455Z,6.73
2023-04-23T22:42:04.015Z,7.20
2023-04-23T22:44:32.365Z,6.33
2023-04-23T22:47:02.044Z,6.43
2023-04-23T22:49:30.336Z,6.87
2023-04-23T22:51:59.240Z,6.77
2023-04-23T22:54:27.389Z,6.43
2023-04-23T22:56:55.852Z,6.17
2023-04-23T22:59:24.840Z,6.63
2023-04-23T23:01:53.761Z,7.00
2023-04-23T23:04:23.345Z,6.60
2023-04-23T23:06:52.081Z,6.30
2023-04-23T23:09:20.322Z,6.93
2023-04-23T23:11:48.511Z,6.50
2023-04-23T23:14:16.920Z,6.70
2023-04-23T23:16:45.035Z,6.60
2023-04-23T23:19:22.100Z,6.60
2023-04-23T23:22:01.788Z,6.87
2023-04-23T23:24:30.031Z,6.80
2023-04-23T23:26:58.787Z,6.97
2023-04-23T23:29:26.891Z,6.73
2023-04-23T23:31:55.458Z,7.83
2023-04-23T23:34:23.817Z,7.00
2023-04-23T23:36:54.304Z,7.40
2023-04-23T23:39:22.446Z,7.67
2023-04-23T23:41:50.660Z,7.67
2023-04-23T23:44:18.857Z,7.30
2023-04-23T23:46:46.976Z,7.63
2023-04-23T23:49:15.421Z,7.43
2023-04-23T23:51:43.470Z,7.93
2023-04-23T23:54:13.024Z,7.53
2023-04-23T23:56:41.612Z,7.47
2023-04-23T23:59:09.669Z,7.80
